sensor_id;sensor_type;location;lat;lon;timestamp;P1;durP1;ratioP1;P2;durP2;ratioP2
12792;SDS011;6460;42.684;23.260;2024-02-23T00:00:01;12.50;;;8.57;;
12792;SDS011;6460;42.684;23.260;2024-02-23T00:02:31;9.70;;;7.53;;
12792;SDS011;6460;42.684;23.260;2024-02-23T00:04:58;11.10;;;7.73;;
12792;SDS011;6460;42.684;23.260;2024-02-23T00:07:26;10.70;;;7.83;;
12792;SDS011;6460;42.684;23.260;2024-02-23T00:09:56;10.60;;;7.90;;
12792;SDS011;6460;42.684;23.260;2024-02-23T00:12:24;10.27;;;7.47;;
12792;SDS011;6460;42.684;23.260;2024-02-23T00:14:52;12.57;;;7.37;;
12792;SDS011;6460;42.684;23.260;2024-02-23T00:17:19;9.37;;;7.57;;
12792;SDS011;6460;42.684;23.260;2024-02-23T00:19:47;9.33;;;7.13;;
12792;SDS011;6460;42.684;23.260;2024-02-23T00:22:18;10.57;;;7.43;;
12792;SDS011;6460;42.684;23.260;2024-02-23T00:24:46;10.10;;;7.37;;
12792;SDS011;6460;42.684;23.260;2024-02-23T00:27:15;8.60;;;7.00;;
12792;SDS011;6460;42.684;23.260;2024-02-23T00:29:43;9.20;;;7.07;;
12792;SDS011;6460;42.684;23.260;2024-02-23T00:32:11;9.17;;;7.17;;
12792;SDS011;6460;42.684;23.260;2024-02-23T00:34:39;11.23;;;7.23;;
12792;SDS011;6460;42.684;23.260;2024-02-23T00:37:07;10.90;;;7.80;;
12792;SDS011;6460;42.684;23.260;2024-02-23T00:39:35;10.10;;;7.80;;
12792;SDS011;6460;42.684;23.260;2024-02-23T00:42:03;10.57;;;7.47;;
12792;SDS011;6460;42.684;23.260;2024-02-23T00:44:32;9.33;;;7.57;;
12792;SDS011;6460;42.684;23.260;2024-02-23T00:47:00;9.80;;;7.67;;
12792;SDS011;6460;42.684;23.260;2024-02-23T00:49:29;11.30;;;8.67;;
12792;SDS011;6460;42.684;23.260;2024-02-23T00:51:57;12.23;;;9.70;;
12792;SDS011;6460;42.684;23.260;2024-02-23T00:54:25;12.53;;;9.43;;
12792;SDS011;6460;42.684;23.260;2024-02-23T00:56:53;13.43;;;9.67;;
12792;SDS011;6460;42.684;23.260;2024-02-23T00:59:21;13.97;;;9.50;;
12792;SDS011;6460;42.684;23.260;2024-02-23T01:01:51;17.00;;;10.60;;
12792;SDS011;6460;42.684;23.260;2024-02-23T01:04:19;13.43;;;10.17;;
12792;SDS011;6460;42.684;23.260;2024-02-23T01:06:47;12.67;;;9.53;;
12792;SDS011;6460;42.684;23.260;2024-02-23T01:09:14;10.93;;;8.83;;
12792;SDS011;6460;42.684;23.260;2024-02-23T01:11:45;12.13;;;8.90;;
12792;SDS011;6460;42.684;23.260;2024-02-23T01:14:13;13.10;;;9.37;;
12792;SDS011;6460;42.684;23.260;2024-02-23T01:16:41;12.07;;;8.73;;
12792;SDS011;6460;42.684;23.260;2024-02-23T01:19:11;11.27;;;8.13;;
12792;SDS011;6460;42.684;23.260;2024-02-23T01:21:41;10.00;;;7.23;;
12792;SDS011;6460;42.684;23.260;2024-02-23T01:24:08;9.70;;;7.50;;
12792;SDS011;6460;42.684;23.260;2024-02-23T01:26:36;11.40;;;7.30;;
12792;SDS011;6460;42.684;23.260;2024-02-23T01:29:04;9.50;;;7.50;;
12792;SDS011;6460;42.684;23.260;2024-02-23T01:31:32;12.07;;;8.93;;
12792;SDS011;6460;42.684;23.260;2024-02-23T01:34:00;15.00;;;8.97;;
12792;SDS011;6460;42.684;23.260;2024-02-23T01:36:30;12.70;;;10.13;;
12792;SDS011;6460;42.684;23.260;2024-02-23T01:38:58;16.97;;;11.50;;
12792;SDS011;6460;42.684;23.260;2024-02-23T01:41:26;13.67;;;10.33;;
12792;SDS011;6460;42.684;23.260;2024-02-23T01:43:54;14.93;;;10.53;;
12792;SDS011;6460;42.684;23.260;2024-02-23T01:46:21;13.27;;;9.60;;
12792;SDS011;6460;42.684;23.260;2024-02-23T01:48:49;13.73;;;9.37;;
12792;SDS011;6460;42.684;23.260;2024-02-23T01:51:17;12.63;;;9.37;;
12792;SDS011;6460;42.684;23.260;2024-02-23T01:53:46;10.67;;;8.47;;
12792;SDS011;6460;42.684;23.260;2024-02-23T01:56:15;14.20;;;9.17;;
12792;SDS011;6460;42.684;23.260;2024-02-23T01:58:45;12.53;;;8.93;;
12792;SDS011;6460;42.684;23.260;2024-02-23T02:01:14;13.63;;;10.03;;
12792;SDS011;6460;42.684;23.260;2024-02-23T02:03:42;12.57;;;9.47;;
12792;SDS011;6460;42.684;23.260;2024-02-23T02:06:10;13.43;;;10.07;;
12792;SDS011;6460;42.684;23.260;2024-02-23T02:08:39;12.93;;;9.67;;
12792;SDS011;6460;42.684;23.260;2024-02-23T02:11:09;11.57;;;9.23;;
12792;SDS011;6460;42.684;23.260;2024-02-23T02:13:37;12.57;;;8.83;;
12792;SDS011;6460;42.684;23.260;2024-02-23T02:16:05;13.10;;;9.03;;
12792;SDS011;6460;42.684;23.260;2024-02-23T02:18:33;12.00;;;8.87;;
12792;SDS011;6460;42.684;23.260;2024-02-23T02:21:01;12.03;;;8.73;;
12792;SDS011;6460;42.684;23.260;2024-02-23T02:23:29;11.37;;;8.57;;
12792;SDS011;6460;42.684;23.260;2024-02-23T02:25:57;9.77;;;8.30;;
12792;SDS011;6460;42.684;23.260;2024-02-23T02:28:27;11.37;;;8.43;;
12792;SDS011;6460;42.684;23.260;2024-02-23T02:30:55;11.60;;;8.77;;
12792;SDS011;6460;42.684;23.260;2024-02-23T02:33:23;12.93;;;9.47;;
12792;SDS011;6460;42.684;23.260;2024-02-23T02:35:51;14.07;;;9.57;;
12792;SDS011;6460;42.684;23.260;2024-02-23T02:38:19;14.60;;;9.40;;
12792;SDS011;6460;42.684;23.260;2024-02-23T02:40:47;12.13;;;9.10;;
12792;SDS011;6460;42.684;23.260;2024-02-23T02:43:15;14.03;;;9.50;;
12792;SDS011;6460;42.684;23.260;2024-02-23T02:45:45;14.03;;;9.73;;
12792;SDS011;6460;42.684;23.260;2024-02-23T02:48:13;13.77;;;10.17;;
12792;SDS011;6460;42.684;23.260;2024-02-23T02:50:41;13.33;;;9.50;;
12792;SDS011;6460;42.684;23.260;2024-02-23T02:53:09;11.90;;;9.00;;
12792;SDS011;6460;42.684;23.260;2024-02-23T02:58:08;11.27;;;8.47;;
12792;SDS011;6460;42.684;23.260;2024-02-23T03:00:35;11.57;;;8.57;;
12792;SDS011;6460;42.684;23.260;2024-02-23T03:03:04;11.50;;;8.53;;
12792;SDS011;6460;42.684;23.260;2024-02-23T03:05:32;10.47;;;8.20;;
12792;SDS011;6460;42.684;23.260;2024-02-23T03:08:00;11.60;;;8.53;;
12792;SDS011;6460;42.684;23.260;2024-02-23T03:10:28;10.43;;;8.23;;
12792;SDS011;6460;42.684;23.260;2024-02-23T03:12:56;11.60;;;9.07;;
12792;SDS011;6460;42.684;23.260;2024-02-23T03:15:24;10.83;;;8.43;;
12792;SDS011;6460;42.684;23.260;2024-02-23T03:17:52;9.90;;;8.33;;
12792;SDS011;6460;42.684;23.260;2024-02-23T03:20:24;12.90;;;9.30;;
12792;SDS011;6460;42.684;23.260;2024-02-23T03:22:51;12.17;;;8.43;;
12792;SDS011;6460;42.684;23.260;2024-02-23T03:25:19;10.10;;;8.03;;
12792;SDS011;6460;42.684;23.260;2024-02-23T03:27:47;10.33;;;7.83;;
12792;SDS011;6460;42.684;23.260;2024-02-23T03:30:15;11.47;;;8.30;;
12792;SDS011;6460;42.684;23.260;2024-02-23T03:32:42;10.00;;;7.83;;
12792;SDS011;6460;42.684;23.260;2024-02-23T03:35:12;13.30;;;8.63;;
12792;SDS011;6460;42.684;23.260;2024-02-23T03:37:42;12.17;;;8.83;;
12792;SDS011;6460;42.684;23.260;2024-02-23T03:40:10;12.83;;;9.37;;
12792;SDS011;6460;42.684;23.260;2024-02-23T03:42:38;12.03;;;9.57;;
12792;SDS011;6460;42.684;23.260;2024-02-23T03:45:06;10.27;;;8.20;;
12792;SDS011;6460;42.684;23.260;2024-02-23T03:47:33;12.00;;;8.40;;
12792;SDS011;6460;42.684;23.260;2024-02-23T03:50:01;10.83;;;8.37;;
12792;SDS011;6460;42.684;23.260;2024-02-23T03:52:28;13.60;;;9.30;;
12792;SDS011;6460;42.684;23.260;2024-02-23T03:54:58;13.23;;;9.30;;
12792;SDS011;6460;42.684;23.260;2024-02-23T03:57:26;12.80;;;9.30;;
12792;SDS011;6460;42.684;23.260;2024-02-23T03:59:54;12.23;;;8.83;;
12792;SDS011;6460;42.684;23.260;2024-02-23T04:02:21;13.63;;;10.03;;
12792;SDS011;6460;42.684;23.260;2024-02-23T04:04:49;10.47;;;9.10;;
12792;SDS011;6460;42.684;23.260;2024-02-23T04:07:18;12.83;;;8.43;;
12792;SDS011;6460;42.684;23.260;2024-02-23T04:09:46;15.90;;;10.07;;
12792;SDS011;6460;42.684;23.260;2024-02-23T04:12:19;15.30;;;10.50;;
12792;SDS011;6460;42.684;23.260;2024-02-23T04:14:46;14.27;;;9.87;;
12792;SDS011;6460;42.684;23.260;2024-02-23T04:17:15;14.17;;;10.47;;
12792;SDS011;6460;42.684;23.260;2024-02-23T04:19:44;12.17;;;9.10;;
12792;SDS011;6460;42.684;23.260;2024-02-23T04:22:11;16.40;;;9.73;;
12792;SDS011;6460;42.684;23.260;2024-02-23T04:24:39;14.43;;;10.40;;
12792;SDS011;6460;42.684;23.260;2024-02-23T04:27:08;15.07;;;9.90;;
12792;SDS011;6460;42.684;23.260;2024-02-23T04:29:37;13.10;;;9.70;;
12792;SDS011;6460;42.684;23.260;2024-02-23T04:32:06;13.90;;;10.40;;
12792;SDS011;6460;42.684;23.260;2024-02-23T04:34:33;12.87;;;10.80;;
12792;SDS011;6460;42.684;23.260;2024-02-23T04:37:01;14.03;;;10.73;;
12792;SDS011;6460;42.684;23.260;2024-02-23T04:39:29;14.17;;;10.00;;
12792;SDS011;6460;42.684;23.260;2024-02-23T04:41:56;13.30;;;10.83;;
12792;SDS011;6460;42.684;23.260;2024-02-23T04:44:24;15.67;;;10.53;;
12792;SDS011;6460;42.684;23.260;2024-02-23T04:46:53;18.87;;;11.83;;
12792;SDS011;6460;42.684;23.260;2024-02-23T04:49:20;13.30;;;9.00;;
12792;SDS011;6460;42.684;23.260;2024-02-23T04:51:48;13.17;;;10.07;;
12792;SDS011;6460;42.684;23.260;2024-02-23T04:54:15;13.70;;;10.50;;
12792;SDS011;6460;42.684;23.260;2024-02-23T04:56:43;18.60;;;12.80;;
12792;SDS011;6460;42.684;23.260;2024-02-23T04:59:11;18.50;;;12.03;;
12792;SDS011;6460;42.684;23.260;2024-02-23T05:01:40;14.93;;;11.13;;
12792;SDS011;6460;42.684;23.260;2024-02-23T05:04:09;17.43;;;11.50;;
12792;SDS011;6460;42.684;23.260;2024-02-23T05:06:37;15.77;;;11.77;;
12792;SDS011;6460;42.684;23.260;2024-02-23T05:09:05;14.47;;;11.00;;
12792;SDS011;6460;42.684;23.260;2024-02-23T05:11:34;16.77;;;10.37;;
12792;SDS011;6460;42.684;23.260;2024-02-23T05:14:01;13.03;;;9.77;;
12792;SDS011;6460;42.684;23.260;2024-02-23T05:16:28;14.97;;;10.70;;
12792;SDS011;6460;42.684;23.260;2024-02-23T05:18:56;15.20;;;10.40;;
12792;SDS011;6460;42.684;23.260;2024-02-23T05:21:24;12.70;;;9.90;;
12792;SDS011;6460;42.684;23.260;2024-02-23T05:23:52;12.90;;;9.73;;
12792;SDS011;6460;42.684;23.260;2024-02-23T05:26:19;11.93;;;6.70;;
12792;SDS011;6460;42.684;23.260;2024-02-23T05:28:46;11.90;;;9.43;;
12792;SDS011;6460;42.684;23.260;2024-02-23T05:31:13;11.87;;;9.43;;
12792;SDS011;6460;42.684;23.260;2024-02-23T05:33:42;17.73;;;9.67;;
12792;SDS011;6460;42.684;23.260;2024-02-23T05:36:09;14.47;;;10.70;;
12792;SDS011;6460;42.684;23.260;2024-02-23T05:38:38;15.53;;;11.13;;
12792;SDS011;6460;42.684;23.260;2024-02-23T05:41:05;14.60;;;11.17;;
12792;SDS011;6460;42.684;23.260;2024-02-23T05:43:32;14.30;;;10.40;;
12792;SDS011;6460;42.684;23.260;2024-02-23T05:46:00;15.10;;;11.73;;
12792;SDS011;6460;42.684;23.260;2024-02-23T05:48:27;14.57;;;11.40;;
12792;SDS011;6460;42.684;23.260;2024-02-23T05:50:55;16.53;;;11.83;;
12792;SDS011;6460;42.684;23.260;2024-02-23T05:53:22;12.53;;;9.53;;
12792;SDS011;6460;42.684;23.260;2024-02-23T05:55:51;14.77;;;10.83;;
12792;SDS011;6460;42.684;23.260;2024-02-23T05:58:19;14.83;;;11.37;;
12792;SDS011;6460;42.684;23.260;2024-02-23T06:00:46;16.50;;;11.27;;
12792;SDS011;6460;42.684;23.260;2024-02-23T06:03:15;16.17;;;10.47;;
12792;SDS011;6460;42.684;23.260;2024-02-23T06:05:43;15.37;;;10.43;;
12792;SDS011;6460;42.684;23.260;2024-02-23T06:08:11;16.70;;;11.47;;
12792;SDS011;6460;42.684;23.260;2024-02-23T06:10:41;15.20;;;10.73;;
12792;SDS011;6460;42.684;23.260;2024-02-23T06:13:12;13.77;;;11.07;;
12792;SDS011;6460;42.684;23.260;2024-02-23T06:15:40;13.27;;;9.67;;
12792;SDS011;6460;42.684;23.260;2024-02-23T06:18:09;17.90;;;11.93;;
12792;SDS011;6460;42.684;23.260;2024-02-23T06:20:37;14.30;;;10.70;;
12792;SDS011;6460;42.684;23.260;2024-02-23T06:23:05;16.23;;;11.50;;
12792;SDS011;6460;42.684;23.260;2024-02-23T06:25:33;13.60;;;10.57;;
12792;SDS011;6460;42.684;23.260;2024-02-23T06:28:01;13.30;;;10.00;;
12792;SDS011;6460;42.684;23.260;2024-02-23T06:30:30;14.20;;;10.60;;
12792;SDS011;6460;42.684;23.260;2024-02-23T06:32:58;22.23;;;11.60;;
12792;SDS011;6460;42.684;23.260;2024-02-23T06:35:26;14.77;;;11.00;;
12792;SDS011;6460;42.684;23.260;2024-02-23T06:37:54;14.13;;;10.77;;
12792;SDS011;6460;42.684;23.260;2024-02-23T06:40:22;14.73;;;10.77;;
12792;SDS011;6460;42.684;23.260;2024-02-23T06:42:51;15.47;;;10.80;;
12792;SDS011;6460;42.684;23.260;2024-02-23T06:45:18;14.30;;;10.03;;
12792;SDS011;6460;42.684;23.260;2024-02-23T06:47:52;13.57;;;9.93;;
12792;SDS011;6460;42.684;23.260;2024-02-23T06:50:20;14.57;;;10.20;;
12792;SDS011;6460;42.684;23.260;2024-02-23T06:52:48;15.20;;;11.13;;
12792;SDS011;6460;42.684;23.260;2024-02-23T06:55:15;14.77;;;10.73;;
12792;SDS011;6460;42.684;23.260;2024-02-23T06:57:43;14.30;;;9.63;;
12792;SDS011;6460;42.684;23.260;2024-02-23T07:00:12;15.77;;;11.53;;
12792;SDS011;6460;42.684;23.260;2024-02-23T07:02:41;15.57;;;10.67;;
12792;SDS011;6460;42.684;23.260;2024-02-23T07:05:10;13.80;;;9.70;;
12792;SDS011;6460;42.684;23.260;2024-02-23T07:07:39;16.17;;;10.70;;
12792;SDS011;6460;42.684;23.260;2024-02-23T07:10:08;16.20;;;11.47;;
12792;SDS011;6460;42.684;23.260;2024-02-23T07:12:37;15.53;;;11.10;;
12792;SDS011;6460;42.684;23.260;2024-02-23T07:15:05;16.33;;;11.47;;
12792;SDS011;6460;42.684;23.260;2024-02-23T07:17:34;14.87;;;11.47;;
12792;SDS011;6460;42.684;23.260;2024-02-23T07:20:02;18.27;;;11.43;;
12792;SDS011;6460;42.684;23.260;2024-02-23T07:22:32;15.00;;;10.50;;
12792;SDS011;6460;42.684;23.260;2024-02-23T07:25:01;18.57;;;10.67;;
12792;SDS011;6460;42.684;23.260;2024-02-23T07:27:29;17.20;;;11.07;;
12792;SDS011;6460;42.684;23.260;2024-02-23T07:29:57;15.10;;;11.17;;
12792;SDS011;6460;42.684;23.260;2024-02-23T07:32:25;13.03;;;10.90;;
12792;SDS011;6460;42.684;23.260;2024-02-23T07:34:55;17.67;;;11.00;;
12792;SDS011;6460;42.684;23.260;2024-02-23T07:37:22;13.83;;;11.23;;
12792;SDS011;6460;42.684;23.260;2024-02-23T07:39:51;17.27;;;12.23;;
12792;SDS011;6460;42.684;23.260;2024-02-23T07:42:19;15.87;;;11.37;;
12792;SDS011;6460;42.684;23.260;2024-02-23T07:44:46;15.63;;;11.30;;
12792;SDS011;6460;42.684;23.260;2024-02-23T07:47:13;14.53;;;11.47;;
12792;SDS011;6460;42.684;23.260;2024-02-23T07:49:41;20.23;;;11.63;;
12792;SDS011;6460;42.684;23.260;2024-02-23T07:52:08;16.17;;;12.00;;
12792;SDS011;6460;42.684;23.260;2024-02-23T07:54:35;19.20;;;12.93;;
12792;SDS011;6460;42.684;23.260;2024-02-23T07:57:04;18.63;;;11.87;;
12792;SDS011;6460;42.684;23.260;2024-02-23T07:59:31;18.60;;;12.63;;
12792;SDS011;6460;42.684;23.260;2024-02-23T08:01:58;17.53;;;12.40;;
12792;SDS011;6460;42.684;23.260;2024-02-23T08:04:25;17.70;;;13.07;;
12792;SDS011;6460;42.684;23.260;2024-02-23T08:06:53;20.60;;;12.80;;
12792;SDS011;6460;42.684;23.260;2024-02-23T08:09:20;22.47;;;12.90;;
12792;SDS011;6460;42.684;23.260;2024-02-23T08:11:48;18.70;;;13.63;;
12792;SDS011;6460;42.684;23.260;2024-02-23T08:14:18;19.83;;;14.23;;
12792;SDS011;6460;42.684;23.260;2024-02-23T08:16:45;19.33;;;13.87;;
12792;SDS011;6460;42.684;23.260;2024-02-23T08:19:12;18.17;;;13.93;;
12792;SDS011;6460;42.684;23.260;2024-02-23T08:21:39;20.63;;;14.00;;
12792;SDS011;6460;42.684;23.260;2024-02-23T08:24:06;21.37;;;14.87;;
12792;SDS011;6460;42.684;23.260;2024-02-23T08:26:33;23.47;;;15.03;;
12792;SDS011;6460;42.684;23.260;2024-02-23T08:29:03;25.03;;;15.53;;
12792;SDS011;6460;42.684;23.260;2024-02-23T08:31:31;21.17;;;14.93;;
12792;SDS011;6460;42.684;23.260;2024-02-23T08:33:59;18.27;;;12.63;;
12792;SDS011;6460;42.684;23.260;2024-02-23T08:36:26;19.13;;;12.20;;
12792;SDS011;6460;42.684;23.260;2024-02-23T08:38:54;19.13;;;14.07;;
12792;SDS011;6460;42.684;23.260;2024-02-23T08:41:21;16.23;;;12.27;;
12792;SDS011;6460;42.684;23.260;2024-02-23T08:43:48;19.00;;;13.03;;
12792;SDS011;6460;42.684;23.260;2024-02-23T08:46:16;20.27;;;13.40;;
12792;SDS011;6460;42.684;23.260;2024-02-23T08:48:46;19.53;;;12.37;;
12792;SDS011;6460;42.684;23.260;2024-02-23T08:51:13;19.87;;;11.70;;
12792;SDS011;6460;42.684;23.260;2024-02-23T08:53:41;11.33;;;9.23;;
12792;SDS011;6460;42.684;23.260;2024-02-23T08:56:08;13.80;;;10.03;;
12792;SDS011;6460;42.684;23.260;2024-02-23T08:58:36;12.43;;;10.37;;
12792;SDS011;6460;42.684;23.260;2024-02-23T09:01:03;14.40;;;10.23;;
12792;SDS011;6460;42.684;23.260;2024-02-23T09:03:31;17.50;;;10.33;;
12792;SDS011;6460;42.684;23.260;2024-02-23T09:05:59;13.40;;;9.40;;
12792;SDS011;6460;42.684;23.260;2024-02-23T09:08:26;8.30;;;6.97;;
12792;SDS011;6460;42.684;23.260;2024-02-23T09:10:54;8.70;;;5.40;;
12792;SDS011;6460;42.684;23.260;2024-02-23T09:13:22;6.83;;;5.77;;
12792;SDS011;6460;42.684;23.260;2024-02-23T09:15:49;6.87;;;5.70;;
12792;SDS011;6460;42.684;23.260;2024-02-23T09:18:16;7.27;;;5.73;;
12792;SDS011;6460;42.684;23.260;2024-02-23T09:20:43;7.43;;;6.00;;
12792;SDS011;6460;42.684;23.260;2024-02-23T09:23:12;10.50;;;6.70;;
12792;SDS011;6460;42.684;23.260;2024-02-23T09:25:40;7.50;;;6.33;;
12792;SDS011;6460;42.684;23.260;2024-02-23T09:28:08;8.27;;;5.63;;
12792;SDS011;6460;42.684;23.260;2024-02-23T09:30:36;6.07;;;5.07;;
12792;SDS011;6460;42.684;23.260;2024-02-23T09:33:04;5.43;;;4.63;;
12792;SDS011;6460;42.684;23.260;2024-02-23T09:35:31;5.97;;;5.20;;
12792;SDS011;6460;42.684;23.260;2024-02-23T09:37:59;5.67;;;4.80;;
12792;SDS011;6460;42.684;23.260;2024-02-23T09:40:27;6.67;;;4.57;;
12792;SDS011;6460;42.684;23.260;2024-02-23T09:42:55;7.00;;;5.17;;
12792;SDS011;6460;42.684;23.260;2024-02-23T09:45:24;6.87;;;5.23;;
12792;SDS011;6460;42.684;23.260;2024-02-23T09:47:53;6.83;;;4.77;;
12792;SDS011;6460;42.684;23.260;2024-02-23T09:50:23;6.20;;;3.97;;
12792;SDS011;6460;42.684;23.260;2024-02-23T09:52:51;4.23;;;3.77;;
12792;SDS011;6460;42.684;23.260;2024-02-23T09:55:18;6.03;;;5.03;;
12792;SDS011;6460;42.684;23.260;2024-02-23T09:57:50;4.80;;;3.80;;
12792;SDS011;6460;42.684;23.260;2024-02-23T10:00:22;4.07;;;3.40;;
12792;SDS011;6460;42.684;23.260;2024-02-23T10:02:50;4.33;;;3.53;;
12792;SDS011;6460;42.684;23.260;2024-02-23T10:05:19;4.63;;;3.73;;
12792;SDS011;6460;42.684;23.260;2024-02-23T10:07:49;3.53;;;3.10;;
12792;SDS011;6460;42.684;23.260;2024-02-23T10:10:23;4.53;;;3.30;;
12792;SDS011;6460;42.684;23.260;2024-02-23T10:12:53;3.47;;;3.17;;
12792;SDS011;6460;42.684;23.260;2024-02-23T10:15:20;5.47;;;3.37;;
12792;SDS011;6460;42.684;23.260;2024-02-23T10:17:47;6.50;;;3.73;;
12792;SDS011;6460;42.684;23.260;2024-02-23T10:20:15;4.03;;;3.30;;
12792;SDS011;6460;42.684;23.260;2024-02-23T10:22:43;3.80;;;3.47;;
12792;SDS011;6460;42.684;23.260;2024-02-23T10:25:11;3.20;;;2.90;;
12792;SDS011;6460;42.684;23.260;2024-02-23T10:27:40;3.17;;;2.87;;
12792;SDS011;6460;42.684;23.260;2024-02-23T10:30:09;2.47;;;1.80;;
12792;SDS011;6460;42.684;23.260;2024-02-23T10:32:38;3.63;;;2.33;;
12792;SDS011;6460;42.684;23.260;2024-02-23T10:35:08;2.73;;;2.53;;
12792;SDS011;6460;42.684;23.260;2024-02-23T10:37:41;3.53;;;3.13;;
12792;SDS011;6460;42.684;23.260;2024-02-23T10:40:11;2.60;;;2.40;;
12792;SDS011;6460;42.684;23.260;2024-02-23T10:42:40;3.60;;;2.47;;
12792;SDS011;6460;42.684;23.260;2024-02-23T10:45:14;2.60;;;2.40;;
12792;SDS011;6460;42.684;23.260;2024-02-23T10:47:43;2.33;;;2.13;;
12792;SDS011;6460;42.684;23.260;2024-02-23T10:50:11;3.60;;;2.60;;
12792;SDS011;6460;42.684;23.260;2024-02-23T10:52:41;2.20;;;2.00;;
12792;SDS011;6460;42.684;23.260;2024-02-23T10:55:09;2.70;;;2.30;;
12792;SDS011;6460;42.684;23.260;2024-02-23T10:57:38;2.20;;;2.00;;
12792;SDS011;6460;42.684;23.260;2024-02-23T11:00:06;2.63;;;2.13;;
12792;SDS011;6460;42.684;23.260;2024-02-23T11:02:38;3.60;;;2.60;;
12792;SDS011;6460;42.684;23.260;2024-02-23T11:05:09;3.43;;;2.40;;
12792;SDS011;6460;42.684;23.260;2024-02-23T11:07:38;2.53;;;1.90;;
12792;SDS011;6460;42.684;23.260;2024-02-23T11:10:06;2.30;;;2.10;;
12792;SDS011;6460;42.684;23.260;2024-02-23T11:12:35;3.40;;;2.50;;
12792;SDS011;6460;42.684;23.260;2024-02-23T11:15:02;2.20;;;2.00;;
12792;SDS011;6460;42.684;23.260;2024-02-23T11:17:30;2.47;;;2.10;;
12792;SDS011;6460;42.684;23.260;2024-02-23T11:20:02;2.50;;;2.30;;
12792;SDS011;6460;42.684;23.260;2024-02-23T11:22:30;2.97;;;2.30;;
12792;SDS011;6460;42.684;23.260;2024-02-23T11:24:59;2.57;;;2.20;;
12792;SDS011;6460;42.684;23.260;2024-02-23T11:27:30;2.43;;;2.00;;
12792;SDS011;6460;42.684;23.260;2024-02-23T11:30:01;2.63;;;2.37;;
12792;SDS011;6460;42.684;23.260;2024-02-23T11:32:37;2.40;;;2.00;;
12792;SDS011;6460;42.684;23.260;2024-02-23T11:35:08;2.27;;;2.07;;
12792;SDS011;6460;42.684;23.260;2024-02-23T11:37:45;2.87;;;2.30;;
12792;SDS011;6460;42.684;23.260;2024-02-23T11:40:13;2.37;;;2.00;;
12792;SDS011;6460;42.684;23.260;2024-02-23T11:42:41;3.13;;;2.10;;
12792;SDS011;6460;42.684;23.260;2024-02-23T11:45:09;2.87;;;2.10;;
12792;SDS011;6460;42.684;23.260;2024-02-23T11:47:37;3.47;;;1.93;;
12792;SDS011;6460;42.684;23.260;2024-02-23T11:50:08;2.50;;;2.30;;
12792;SDS011;6460;42.684;23.260;2024-02-23T11:52:36;3.47;;;1.70;;
12792;SDS011;6460;42.684;23.260;2024-02-23T11:55:04;3.17;;;1.93;;
12792;SDS011;6460;42.684;23.260;2024-02-23T11:57:33;2.70;;;2.10;;
12792;SDS011;6460;42.684;23.260;2024-02-23T12:00:01;2.30;;;1.90;;
12792;SDS011;6460;42.684;23.260;2024-02-23T12:02:29;2.57;;;2.10;;
12792;SDS011;6460;42.684;23.260;2024-02-23T12:04:57;2.93;;;2.17;;
12792;SDS011;6460;42.684;23.260;2024-02-23T12:07:26;1.77;;;1.60;;
12792;SDS011;6460;42.684;23.260;2024-02-23T12:09:55;2.77;;;2.23;;
12792;SDS011;6460;42.684;23.260;2024-02-23T12:12:22;2.50;;;2.30;;
12792;SDS011;6460;42.684;23.260;2024-02-23T12:14:50;2.50;;;2.17;;
12792;SDS011;6460;42.684;23.260;2024-02-23T12:17:17;3.73;;;2.03;;
12792;SDS011;6460;42.684;23.260;2024-02-23T12:19:45;1.80;;;1.60;;
12792;SDS011;6460;42.684;23.260;2024-02-23T12:22:14;2.10;;;1.90;;
12792;SDS011;6460;42.684;23.260;2024-02-23T12:24:43;3.57;;;2.07;;
12792;SDS011;6460;42.684;23.260;2024-02-23T12:27:16;2.63;;;2.43;;
12792;SDS011;6460;42.684;23.260;2024-02-23T12:29:50;5.37;;;2.43;;
12792;SDS011;6460;42.684;23.260;2024-02-23T12:32:19;4.47;;;2.30;;
12792;SDS011;6460;42.684;23.260;2024-02-23T12:34:47;2.43;;;1.83;;
12792;SDS011;6460;42.684;23.260;2024-02-23T12:37:15;1.93;;;1.70;;
12792;SDS011;6460;42.684;23.260;2024-02-23T12:39:44;4.57;;;1.80;;
12792;SDS011;6460;42.684;23.260;2024-02-23T12:42:11;3.60;;;2.00;;
12792;SDS011;6460;42.684;23.260;2024-02-23T12:44:39;4.70;;;2.37;;
12792;SDS011;6460;42.684;23.260;2024-02-23T12:47:06;2.20;;;2.00;;
12792;SDS011;6460;42.684;23.260;2024-02-23T12:49:34;2.17;;;1.80;;
12792;SDS011;6460;42.684;23.260;2024-02-23T12:52:02;4.83;;;2.17;;
12792;SDS011;6460;42.684;23.260;2024-02-23T12:54:29;2.20;;;2.00;;
12792;SDS011;6460;42.684;23.260;2024-02-23T12:56:58;4.73;;;2.30;;
12792;SDS011;6460;42.684;23.260;2024-02-23T12:59:25;2.13;;;1.83;;
12792;SDS011;6460;42.684;23.260;2024-02-23T13:01:53;2.40;;;2.17;;
12792;SDS011;6460;42.684;23.260;2024-02-23T13:04:20;3.17;;;2.20;;
12792;SDS011;6460;42.684;23.260;2024-02-23T13:06:48;3.43;;;2.53;;
12792;SDS011;6460;42.684;23.260;2024-02-23T13:09:15;3.10;;;2.03;;
12792;SDS011;6460;42.684;23.260;2024-02-23T13:11:42;3.10;;;2.37;;
12792;SDS011;6460;42.684;23.260;2024-02-23T13:14:12;2.67;;;2.27;;
12792;SDS011;6460;42.684;23.260;2024-02-23T13:16:41;2.10;;;1.70;;
12792;SDS011;6460;42.684;23.260;2024-02-23T13:19:08;4.27;;;1.93;;
12792;SDS011;6460;42.684;23.260;2024-02-23T13:21:35;2.60;;;2.03;;
12792;SDS011;6460;42.684;23.260;2024-02-23T13:24:03;3.33;;;2.03;;
12792;SDS011;6460;42.684;23.260;2024-02-23T13:26:31;2.90;;;2.10;;
12792;SDS011;6460;42.684;23.260;2024-02-23T13:28:58;1.87;;;1.67;;
12792;SDS011;6460;42.684;23.260;2024-02-23T13:31:27;2.30;;;2.10;;
12792;SDS011;6460;42.684;23.260;2024-02-23T13:33:54;3.03;;;2.10;;
12792;SDS011;6460;42.684;23.260;2024-02-23T13:36:22;2.90;;;2.57;;
12792;SDS011;6460;42.684;23.260;2024-02-23T13:38:49;2.30;;;2.10;;
12792;SDS011;6460;42.684;23.260;2024-02-23T13:41:17;2.77;;;2.20;;
12792;SDS011;6460;42.684;23.260;2024-02-23T13:43:44;3.53;;;2.33;;
12792;SDS011;6460;42.684;23.260;2024-02-23T13:46:11;2.90;;;2.53;;
12792;SDS011;6460;42.684;23.260;2024-02-23T13:48:40;3.17;;;2.30;;
12792;SDS011;6460;42.684;23.260;2024-02-23T13:51:08;3.03;;;2.30;;
12792;SDS011;6460;42.684;23.260;2024-02-23T13:53:35;3.47;;;2.33;;
12792;SDS011;6460;42.684;23.260;2024-02-23T13:56:03;2.63;;;2.10;;
12792;SDS011;6460;42.684;23.260;2024-02-23T13:58:30;11.73;;;3.00;;
12792;SDS011;6460;42.684;23.260;2024-02-23T14:00:58;2.60;;;2.40;;
12792;SDS011;6460;42.684;23.260;2024-02-23T14:03:25;2.53;;;2.17;;
12792;SDS011;6460;42.684;23.260;2024-02-23T14:05:54;3.03;;;2.40;;
12792;SDS011;6460;42.684;23.260;2024-02-23T14:08:21;3.27;;;2.10;;
12792;SDS011;6460;42.684;23.260;2024-02-23T14:10:48;2.90;;;2.60;;
12792;SDS011;6460;42.684;23.260;2024-02-23T14:13:15;2.80;;;2.27;;
12792;SDS011;6460;42.684;23.260;2024-02-23T14:15:43;2.40;;;2.20;;
12792;SDS011;6460;42.684;23.260;2024-02-23T14:18:10;3.23;;;2.30;;
12792;SDS011;6460;42.684;23.260;2024-02-23T14:20:37;2.40;;;2.20;;
12792;SDS011;6460;42.684;23.260;2024-02-23T14:23:06;2.20;;;2.00;;
12792;SDS011;6460;42.684;23.260;2024-02-23T14:25:34;2.40;;;2.20;;
12792;SDS011;6460;42.684;23.260;2024-02-23T14:28:01;2.60;;;2.40;;
12792;SDS011;6460;42.684;23.260;2024-02-23T14:30:29;3.87;;;2.30;;
12792;SDS011;6460;42.684;23.260;2024-02-23T14:32:56;3.40;;;2.67;;
12792;SDS011;6460;42.684;23.260;2024-02-23T14:35:24;2.67;;;2.43;;
12792;SDS011;6460;42.684;23.260;2024-02-23T14:37:51;2.83;;;2.50;;
12792;SDS011;6460;42.684;23.260;2024-02-23T14:40:20;4.60;;;2.50;;
12792;SDS011;6460;42.684;23.260;2024-02-23T14:42:48;3.17;;;2.80;;